createdAt,value
2023-03-28T00:01:26.732Z,99.90
2023-03-28T00:03:35.549Z,99.90
2023-03-28T00:05:41.128Z,99.90
2023-03-28T00:07:44.128Z,99.90
2023-03-28T00:09:47.284Z,99.90
2023-03-28T00:11:49.987Z,99.90
2023-03-28T00:13:57.680Z,99.90
2023-03-28T00:16:04.327Z,99.90
2023-03-28T00:18:08.198Z,99.90
2023-03-28T00:20:14.460Z,99.90
2023-03-28T00:22:17.384Z,99.90
2023-03-28T00:24:22.093Z,99.90
2023-03-28T00:26:26.831Z,99.90
2023-03-28T00:28:29.601Z,99.90
2023-03-28T00:30:32.315Z,99.90
2023-03-28T00:32:35.085Z,99.90
2023-03-28T00:34:37.880Z,99.90
2023-03-28T00:36:42.650Z,99.90
2023-03-28T00:38:45.517Z,99.90
2023-03-28T00:40:48.696Z,99.90
2023-03-28T00:42:51.421Z,99.90
2023-03-28T00:44:55.069Z,99.90
2023-03-28T00:46:57.959Z,99.90
2023-03-28T00:49:03.366Z,99.90
2023-03-28T00:51:06.444Z,99.90
2023-03-28T00:53:11.210Z,99.90
2023-03-28T00:55:16.570Z,99.90
2023-03-28T00:57:19.335Z,99.90
2023-03-28T00:59:23.528Z,1.00
2023-03-28T01:01:26.312Z,1.00
2023-03-28T01:03:30.406Z,1.00
2023-03-28T01:05:33.829Z,1.00
2023-03-28T01:07:39.600Z,1.00
2023-03-28T01:09:43.676Z,1.00
2023-03-28T01:11:46.373Z,1.00
2023-03-28T01:13:50.952Z,1.00
2023-03-28T01:15:53.971Z,1.00
2023-03-28T01:17:55.854Z,1.00
2023-03-28T01:20:04.165Z,1.00
2023-03-28T01:22:26.572Z,1.00
2023-03-28T01:24:51.976Z,1.00
2023-03-28T01:26:54.951Z,1.00
2023-03-28T01:29:36.756Z,1.00
2023-03-28T01:31:48.140Z,1.00
2023-03-28T01:34:00.527Z,1.00
2023-03-28T01:36:37.185Z,1.00
2023-03-28T01:38:42.223Z,1.00
2023-03-28T01:40:46.745Z,1.00
2023-03-28T01:42:54.520Z,1.00
2023-03-28T01:45:01.976Z,1.00
2023-03-28T01:47:07.910Z,1.00
2023-03-28T01:49:12.030Z,1.00
2023-03-28T01:51:19.024Z,1.00
2023-03-28T01:53:25.800Z,1.00
2023-03-28T01:55:30.286Z,1.00
2023-03-28T01:57:34.876Z,1.00
2023-03-28T01:59:39.105Z,1.00
2023-03-28T02:01:46.643Z,1.00
2023-03-28T02:03:50.262Z,1.00
2023-03-28T02:05:53.805Z,1.00
2023-03-28T02:07:56.568Z,1.00
2023-03-28T02:10:00.694Z,1.00
2023-03-28T02:12:05.439Z,1.00
2023-03-28T02:14:09.860Z,1.00
2023-03-28T02:16:12.825Z,1.00
2023-03-28T02:18:17.998Z,1.00
2023-03-28T02:20:21.368Z,1.00
2023-03-28T02:22:25.669Z,1.00
2023-03-28T02:24:28.448Z,1.00
2023-03-28T02:26:33.507Z,1.00
2023-03-28T02:28:36.968Z,1.00
2023-03-28T02:30:40.034Z,1.00
2023-03-28T02:32:44.058Z,1.00
2023-03-28T02:34:48.843Z,1.00
2023-03-28T02:36:53.600Z,1.00
2023-03-28T02:39:12.051Z,1.00
2023-03-28T02:41:17.874Z,1.00
2023-03-28T02:43:37.074Z,1.00
2023-03-28T02:45:51.502Z,1.00
2023-03-28T02:48:00.321Z,1.00
2023-03-28T02:50:10.941Z,1.00
2023-03-28T02:52:16.659Z,1.00
2023-03-28T02:54:28.226Z,1.00
2023-03-28T02:56:37.049Z,1.00
2023-03-28T02:58:43.495Z,1.00
2023-03-28T03:00:46.285Z,1.00
2023-03-28T03:02:51.479Z,1.00
2023-03-28T03:04:57.625Z,1.00
2023-03-28T03:07:02.694Z,1.00
2023-03-28T03:09:05.782Z,1.00
2023-03-28T03:11:08.678Z,1.00
2023-03-28T03:13:11.454Z,1.00
2023-03-28T03:15:17.023Z,1.00
2023-03-28T03:17:19.861Z,1.00
2023-03-28T03:19:22.613Z,1.00
2023-03-28T03:21:25.483Z,1.00
2023-03-28T03:23:28.283Z,1.00
2023-03-28T03:25:31.724Z,1.00
2023-03-28T03:27:35.103Z,1.00
2023-03-28T03:29:38.991Z,1.00
2023-03-28T03:31:43.749Z,1.00
2023-03-28T03:33:46.543Z,1.00
2023-03-28T03:35:50.020Z,1.00
2023-03-28T03:37:52.911Z,1.00
2023-03-28T03:39:55.690Z,1.00
2023-03-28T03:41:58.471Z,1.00
2023-03-28T03:44:01.228Z,1.00
2023-03-28T03:46:04.183Z,1.00
2023-03-28T03:48:08.606Z,1.00
2023-03-28T03:50:11.840Z,1.00
2023-03-28T03:52:14.601Z,1.00
2023-03-28T03:54:17.579Z,1.00
2023-03-28T03:56:21.183Z,1.00
2023-03-28T03:58:23.950Z,1.00
2023-03-28T04:00:27.163Z,1.00
2023-03-28T04:02:30.002Z,1.00
2023-03-28T04:04:34.346Z,1.00
2023-03-28T04:06:38.800Z,1.00
2023-03-28T04:08:41.602Z,1.00
2023-03-28T04:10:46.169Z,1.00
2023-03-28T04:12:50.618Z,1.00
2023-03-28T04:14:53.374Z,1.00
2023-03-28T04:16:56.214Z,1.00
2023-03-28T04:18:59.548Z,1.00
2023-03-28T04:21:03.690Z,1.00
2023-03-28T04:23:08.317Z,1.00
2023-03-28T04:25:11.235Z,1.00
2023-03-28T04:27:15.612Z,1.00
2023-03-28T04:29:18.384Z,1.00
2023-03-28T04:31:21.787Z,1.00
2023-03-28T04:33:25.193Z,1.00
2023-03-28T04:35:29.602Z,1.00
2023-03-28T04:37:37.554Z,1.00
2023-03-28T04:39:41.675Z,1.00
2023-03-28T04:41:46.402Z,1.00
2023-03-28T04:43:49.159Z,1.00
2023-03-28T04:45:51.940Z,1.00
2023-03-28T04:47:54.831Z,1.00
2023-03-28T04:49:58.312Z,1.00
2023-03-28T04:52:01.134Z,1.00
2023-03-28T04:54:05.251Z,1.00
2023-03-28T04:56:09.293Z,1.00
2023-03-28T04:58:12.041Z,1.00
2023-03-28T05:00:16.926Z,1.00
2023-03-28T05:02:20.084Z,1.00
2023-03-28T05:04:24.179Z,1.00
2023-03-28T05:06:26.972Z,1.00
2023-03-28T05:08:29.717Z,1.00
2023-03-28T05:10:33.882Z,1.00
2023-03-28T05:12:37.070Z,1.00
2023-03-28T05:14:40.606Z,1.00
2023-03-28T05:16:43.543Z,1.00
2023-03-28T05:18:47.331Z,1.00
2023-03-28T05:20:50.101Z,1.00
2023-03-28T05:22:52.948Z,1.00
2023-03-28T05:24:56.290Z,1.00
2023-03-28T05:27:00.410Z,1.00
2023-03-28T05:29:03.217Z,1.00
2023-03-28T05:31:07.578Z,1.00
2023-03-28T05:33:10.331Z,1.00
2023-03-28T05:35:14.070Z,1.00
2023-03-28T05:37:17.009Z,1.00
2023-03-28T05:39:19.768Z,1.00
2023-03-28T05:41:22.544Z,1.00
2023-03-28T05:43:26.971Z,1.00
2023-03-28T05:45:29.805Z,1.00
2023-03-28T05:47:32.721Z,1.00
2023-03-28T05:49:35.472Z,1.00
2023-03-28T05:51:38.241Z,1.00
2023-03-28T05:53:40.991Z,1.00
2023-03-28T05:55:43.761Z,1.00
2023-03-28T05:57:46.533Z,1.00
2023-03-28T05:59:50.686Z,1.00
2023-03-28T06:01:53.603Z,1.00
2023-03-28T06:03:57.285Z,1.00
2023-03-28T06:06:00.121Z,1.00
2023-03-28T06:08:02.922Z,1.00
2023-03-28T06:10:06.718Z,1.00
2023-03-28T06:12:09.496Z,1.00
2023-03-28T06:14:12.295Z,99.90
2023-03-28T06:16:16.482Z,99.90
2023-03-28T06:18:19.294Z,99.90
2023-03-28T06:20:22.070Z,99.90
2023-03-28T06:22:25.016Z,99.90
2023-03-28T06:24:27.770Z,99.90
2023-03-28T06:26:30.639Z,99.90
2023-03-28T06:28:33.391Z,99.90
2023-03-28T06:30:36.158Z,99.90
2023-03-28T06:32:40.515Z,99.90
2023-03-28T06:34:43.346Z,99.90
2023-03-28T06:36:46.194Z,99.90
2023-03-28T06:38:50.318Z,99.90
2023-03-28T06:40:53.158Z,99.90
2023-03-28T06:42:55.941Z,99.90
2023-03-28T06:44:58.769Z,99.90
2023-03-28T06:47:02.543Z,99.90
2023-03-28T06:49:06.998Z,99.90
2023-03-28T06:51:09.798Z,99.90
2023-03-28T06:53:12.563Z,99.90
2023-03-28T06:55:15.390Z,99.90
2023-03-28T06:57:18.228Z,99.90
2023-03-28T06:59:21.033Z,99.90
2023-03-28T07:01:23.827Z,99.90
2023-03-28T07:03:26.822Z,99.90
2023-03-28T07:05:31.026Z,99.90
2023-03-28T07:07:33.814Z,99.90
2023-03-28T07:09:36.593Z,99.90
2023-03-28T07:11:39.382Z,99.90
2023-03-28T07:13:42.253Z,99.90
2023-03-28T07:15:45.027Z,99.90
2023-03-28T07:17:48.300Z,99.90
2023-03-28T07:19:53.559Z,99.90
2023-03-28T07:21:57.727Z,99.90
2023-03-28T07:24:00.489Z,99.90
2023-03-28T07:26:03.315Z,99.90
2023-03-28T07:28:06.114Z,99.90
2023-03-28T07:30:09.830Z,99.90
2023-03-28T07:32:12.664Z,99.90
2023-03-28T07:34:16.577Z,99.90
2023-03-28T07:36:20.502Z,99.90
2023-03-28T07:38:24.669Z,99.90
2023-03-28T07:40:27.728Z,99.90
2023-03-28T07:42:30.803Z,99.90
2023-03-28T07:44:33.956Z,99.90
2023-03-28T07:46:38.172Z,99.90
2023-03-28T07:48:41.311Z,99.90
2023-03-28T07:50:44.733Z,99.90
2023-03-28T07:52:47.541Z,99.90
2023-03-28T07:54:51.655Z,99.90
2023-03-28T07:56:54.526Z,99.90
2023-03-28T07:58:57.317Z,99.90
2023-03-28T08:01:05.228Z,99.90
2023-03-28T08:03:09.090Z,99.90
2023-03-28T08:05:12.032Z,99.90
2023-03-28T08:07:15.612Z,99.90
2023-03-28T08:09:18.424Z,99.90
2023-03-28T08:11:22.874Z,99.90
2023-03-28T08:13:25.692Z,99.90
2023-03-28T08:15:28.492Z,99.90
2023-03-28T08:17:31.680Z,99.90
2023-03-28T08:19:34.634Z,99.90
2023-03-28T08:21:37.440Z,99.90
2023-03-28T08:23:40.321Z,99.90
2023-03-28T08:25:43.090Z,99.90
2023-03-28T08:27:47.255Z,99.90
2023-03-28T08:29:50.001Z,99.90
2023-03-28T08:31:53.023Z,99.90
2023-03-28T08:33:56.456Z,99.90
2023-03-28T08:35:59.452Z,99.90
2023-03-28T08:38:02.307Z,99.90
2023-03-28T08:40:08.731Z,99.90
2023-03-28T08:42:26.346Z,99.90
2023-03-28T08:44:39.764Z,99.90
2023-03-28T08:46:43.030Z,99.90
2023-03-28T08:48:46.060Z,99.90
2023-03-28T08:50:50.417Z,99.90
2023-03-28T08:52:53.199Z,99.90
2023-03-28T08:54:57.769Z,99.90
2023-03-28T08:57:01.975Z,99.90
2023-03-28T08:59:07.202Z,99.90
2023-03-28T09:01:11.405Z,99.90
2023-03-28T09:03:14.951Z,99.90
2023-03-28T09:05:23.784Z,99.90
2023-03-28T09:07:35.096Z,99.90
2023-03-28T09:09:42.837Z,99.90
2023-03-28T09:11:51.729Z,99.90
2023-03-28T09:14:01.872Z,99.90
2023-03-28T09:16:36.176Z,99.90
2023-03-28T09:18:51.859Z,99.90
2023-03-28T09:20:56.898Z,99.90
2023-03-28T09:23:11.785Z,99.90
2023-03-28T09:25:21.438Z,99.90
2023-03-28T09:27:26.684Z,99.90
2023-03-28T09:29:29.490Z,99.90
2023-03-28T09:31:34.824Z,99.90
2023-03-28T09:33:39.198Z,99.90
2023-03-28T09:35:42.048Z,99.90
2023-03-28T09:37:45.778Z,99.90
2023-03-28T09:39:51.366Z,99.90
2023-03-28T09:41:56.200Z,99.90
2023-03-28T09:44:00.638Z,99.90
2023-03-28T09:46:04.897Z,99.90
2023-03-28T09:48:19.720Z,99.90
2023-03-28T09:50:22.809Z,99.90
2023-03-28T09:52:25.613Z,99.90
2023-03-28T09:54:29.792Z,99.90
2023-03-28T09:56:34.394Z,99.90
2023-03-28T09:58:49.182Z,99.90
2023-03-28T10:00:52.959Z,99.90
2023-03-28T10:02:55.833Z,99.90
2023-03-28T10:05:00.155Z,99.90
2023-03-28T10:07:22.240Z,99.90
2023-03-28T10:09:26.271Z,99.90
2023-03-28T10:11:29.282Z,99.90
2023-03-28T10:13:38.728Z,99.90
2023-03-28T10:15:42.811Z,99.90
2023-03-28T10:17:45.697Z,99.90
2023-03-28T10:19:48.513Z,99.90
2023-03-28T10:21:52.777Z,99.90
2023-03-28T10:23:59.237Z,99.90
2023-03-28T10:26:03.318Z,99.90
2023-03-28T10:28:06.772Z,99.90
2023-03-28T10:30:10.740Z,99.90
2023-03-28T10:32:14.153Z,99.90
2023-03-28T10:34:25.737Z,99.90
2023-03-28T10:36:31.511Z,99.90
2023-03-28T10:38:38.436Z,99.90
2023-03-28T10:40:41.300Z,99.90
2023-03-28T10:42:44.903Z,99.90
2023-03-28T10:44:47.712Z,99.90
2023-03-28T10:46:50.549Z,99.90
2023-03-28T10:48:54.350Z,99.90
2023-03-28T10:50:57.649Z,99.90
2023-03-28T10:53:16.369Z,99.90
2023-03-28T10:55:23.316Z,99.90
2023-03-28T10:57:28.109Z,99.90
2023-03-28T10:59:47.022Z,99.90
2023-03-28T11:01:56.111Z,99.90
2023-03-28T11:04:13.595Z,99.90
2023-03-28T11:06:18.353Z,99.90
2023-03-28T11:08:37.760Z,99.90
2023-03-28T11:10:44.071Z,99.90
2023-03-28T11:12:56.673Z,99.70
2023-03-28T11:15:04.661Z,96.00
2023-03-28T11:17:09.592Z,94.10
2023-03-28T11:19:16.712Z,92.80
2023-03-28T11:21:27.030Z,95.10
2023-03-28T11:23:48.974Z,93.60
2023-03-28T11:25:56.272Z,93.90
2023-03-28T11:28:02.012Z,93.80
2023-03-28T11:30:08.282Z,87.90
2023-03-28T11:32:15.665Z,89.10
2023-03-28T11:34:21.832Z,86.00
2023-03-28T11:36:29.503Z,85.90
2023-03-28T11:38:33.669Z,86.60
2023-03-28T11:40:40.624Z,87.20
2023-03-28T11:42:46.458Z,86.50
2023-03-28T11:44:52.894Z,85.60
2023-03-28T11:46:57.705Z,81.90
2023-03-28T11:49:07.051Z,91.50
2023-03-28T11:51:10.980Z,86.00
2023-03-28T11:53:15.578Z,89.60
2023-03-28T11:55:20.540Z,85.70
2023-03-28T11:57:28.862Z,81.00
2023-03-28T11:59:36.394Z,77.80
2023-03-28T12:01:40.795Z,73.50
2023-03-28T12:03:52.169Z,76.80
2023-03-28T12:06:04.092Z,67.20
2023-03-28T12:08:09.295Z,73.60
2023-03-28T12:10:18.527Z,58.80
2023-03-28T12:12:23.697Z,69.50
2023-03-28T12:14:42.973Z,62.40
2023-03-28T12:16:47.863Z,55.80
2023-03-28T12:18:51.554Z,61.60
2023-03-28T12:21:00.561Z,59.60
2023-03-28T12:23:05.259Z,51.00
2023-03-28T12:25:11.781Z,49.10
2023-03-28T12:27:19.097Z,52.90
2023-03-28T12:29:25.494Z,51.50
2023-03-28T12:31:31.081Z,52.60
2023-03-28T12:33:40.928Z,48.50
2023-03-28T12:35:46.560Z,46.60
2023-03-28T12:37:59.381Z,46.20
2023-03-28T12:40:12.568Z,36.00
2023-03-28T12:42:16.350Z,42.00
2023-03-28T12:44:22.823Z,43.70
2023-03-28T12:46:28.022Z,31.90
2023-03-28T12:48:34.977Z,35.10
2023-03-28T12:50:42.352Z,32.10
2023-03-28T12:52:46.755Z,31.50
2023-03-28T12:54:59.716Z,31.20
2023-03-28T12:57:05.096Z,32.00
2023-03-28T12:59:32.311Z,32.00
2023-03-28T13:01:44.420Z,32.50
2023-03-28T13:03:53.988Z,32.40
2023-03-28T13:05:59.416Z,31.70
2023-03-28T13:08:04.231Z,30.70
2023-03-28T13:10:08.195Z,30.20
2023-03-28T13:12:22.974Z,29.90
2023-03-28T13:14:32.354Z,29.80
2023-03-28T13:16:46.258Z,29.60
2023-03-28T13:18:50.659Z,29.40
2023-03-28T13:20:53.625Z,29.60
2023-03-28T13:23:00.462Z,29.70
2023-03-28T13:25:27.242Z,30.00
2023-03-28T13:27:30.522Z,30.40
2023-03-28T13:29:46.781Z,30.90
2023-03-28T13:31:49.619Z,30.90
2023-03-28T13:33:58.734Z,30.80
2023-03-28T13:36:24.817Z,30.40
2023-03-28T13:38:33.956Z,30.10
2023-03-28T13:40:48.131Z,29.90
2023-03-28T13:42:58.354Z,30.10
2023-03-28T13:45:02.231Z,30.30
2023-03-28T13:47:05.099Z,30.00
2023-03-28T13:49:13.394Z,29.80
2023-03-28T13:51:19.012Z,26.90
2023-03-28T13:53:21.925Z,30.00
2023-03-28T13:55:25.214Z,30.00
2023-03-28T13:57:28.188Z,30.20
2023-03-28T13:59:34.038Z,28.40
2023-03-28T14:01:38.140Z,26.90
2023-03-28T14:03:44.139Z,30.40
2023-03-28T14:05:49.403Z,27.00
2023-03-28T14:07:52.881Z,27.60
2023-03-28T14:09:56.170Z,25.00
2023-03-28T14:11:59.587Z,25.30
2023-03-28T14:14:09.342Z,26.90
2023-03-28T14:16:12.565Z,29.90
2023-03-28T14:18:16.797Z,30.30
2023-03-28T14:20:19.769Z,25.50
2023-03-28T14:22:26.551Z,25.60
2023-03-28T14:24:29.348Z,24.70
2023-03-28T14:26:33.312Z,23.10
2023-03-28T14:28:41.071Z,28.00
2023-03-28T14:30:43.883Z,21.50
2023-03-28T14:32:57.472Z,19.70
2023-03-28T14:35:18.954Z,20.20
2023-03-28T14:37:23.419Z,25.50
2023-03-28T14:39:27.176Z,22.10
2023-03-28T14:41:32.406Z,20.30
2023-03-28T14:43:35.190Z,22.30
2023-03-28T14:45:39.027Z,21.50
2023-03-28T14:47:42.302Z,21.70
2023-03-28T14:49:45.739Z,23.10
2023-03-28T14:51:53.272Z,21.70
2023-03-28T14:53:57.629Z,25.10
2023-03-28T14:56:03.399Z,25.30
2023-03-28T14:58:07.423Z,27.50
2023-03-28T15:00:12.908Z,29.50
2023-03-28T15:02:20.132Z,24.90
2023-03-28T15:04:22.978Z,29.40
2023-03-28T15:06:26.005Z,22.40
2023-03-28T15:08:34.014Z,29.50
2023-03-28T15:10:38.192Z,29.30
2023-03-28T15:12:43.847Z,29.30
2023-03-28T15:14:46.634Z,29.30
2023-03-28T15:16:49.687Z,29.30
2023-03-28T15:18:55.632Z,29.30
2023-03-28T15:20:59.916Z,29.30
2023-03-28T15:23:04.053Z,29.20
2023-03-28T15:25:12.668Z,29.20
2023-03-28T15:27:21.219Z,26.50
2023-03-28T15:29:25.421Z,24.20
2023-03-28T15:31:28.483Z,27.00
2023-03-28T15:33:33.515Z,27.20
2023-03-28T15:35:39.241Z,26.50
2023-03-28T15:37:42.807Z,25.60
2023-03-28T15:39:49.410Z,29.40
2023-03-28T15:41:54.161Z,29.40
2023-03-28T15:44:11.476Z,29.40
2023-03-28T15:46:14.616Z,29.30
2023-03-28T15:48:19.822Z,29.00
2023-03-28T15:50:27.012Z,29.20
2023-03-28T15:52:29.814Z,29.00
2023-03-28T15:54:32.711Z,29.10
2023-03-28T15:56:41.016Z,29.10
2023-03-28T15:58:44.807Z,29.00
2023-03-28T16:00:49.971Z,29.10
2023-03-28T16:02:52.846Z,29.10
2023-03-28T16:05:00.045Z,29.10
2023-03-28T16:07:09.303Z,29.10
2023-03-28T16:09:16.728Z,29.10
2023-03-28T16:11:21.528Z,29.00
2023-03-28T16:13:24.330Z,29.00
2023-03-28T16:15:27.122Z,29.00
2023-03-28T16:17:31.888Z,29.00
2023-03-28T16:19:36.700Z,29.00
2023-03-28T16:21:39.452Z,28.90
2023-03-28T16:23:42.208Z,30.00
2023-03-28T16:25:44.979Z,28.80
2023-03-28T16:27:47.752Z,28.80
2023-03-28T16:29:51.018Z,28.70
2023-03-28T16:31:54.173Z,28.70
2023-03-28T16:34:00.152Z,28.90
2023-03-28T16:36:03.224Z,28.60
2023-03-28T16:38:06.746Z,28.70
2023-03-28T16:40:10.495Z,35.10
2023-03-28T16:42:13.279Z,31.00
2023-03-28T16:44:16.090Z,28.60
2023-03-28T16:46:18.877Z,28.40
2023-03-28T16:48:21.657Z,28.40
2023-03-28T16:50:25.784Z,28.40
2023-03-28T16:52:29.988Z,28.30
2023-03-28T16:54:32.921Z,28.30
2023-03-28T16:56:36.085Z,33.20
2023-03-28T16:58:39.139Z,35.80
2023-03-28T17:00:42.204Z,38.00
2023-03-28T17:02:45.283Z,34.80
2023-03-28T17:04:50.911Z,37.10
2023-03-28T17:06:55.704Z,41.00
2023-03-28T17:08:58.843Z,41.60
2023-03-28T17:11:01.751Z,44.00
2023-03-28T17:13:04.527Z,38.60
2023-03-28T17:15:08.908Z,40.00
2023-03-28T17:17:11.752Z,38.50
2023-03-28T17:19:18.016Z,41.10
2023-03-28T17:21:21.002Z,47.90
2023-03-28T17:23:25.348Z,51.40
2023-03-28T17:25:28.270Z,54.10
2023-03-28T17:27:31.125Z,60.80
2023-03-28T17:29:33.996Z,58.90
2023-03-28T17:31:37.154Z,56.20
2023-03-28T17:33:40.259Z,57.00
2023-03-28T17:35:43.068Z,55.10
2023-03-28T17:37:46.350Z,55.10
2023-03-28T17:39:51.007Z,52.80
2023-03-28T17:41:53.766Z,53.40
2023-03-28T17:43:57.038Z,53.40
2023-03-28T17:46:00.121Z,53.20
2023-03-28T17:48:03.201Z,52.80
2023-03-28T17:50:07.484Z,52.30
2023-03-28T17:52:11.108Z,50.30
2023-03-28T17:54:14.570Z,50.80
2023-03-28T17:56:18.727Z,49.10
2023-03-28T17:58:21.482Z,45.10
2023-03-28T18:00:24.449Z,47.10
2023-03-28T18:02:27.398Z,45.00
2023-03-28T18:04:30.368Z,46.40
2023-03-28T18:06:33.336Z,45.60
2023-03-28T18:08:36.977Z,43.40
2023-03-28T18:10:39.982Z,43.20
2023-03-28T18:12:44.099Z,43.50
2023-03-28T18:14:48.198Z,44.00
2023-03-28T18:16:50.973Z,43.50
2023-03-28T18:18:54.315Z,44.70
2023-03-28T18:20:57.138Z,44.20
2023-03-28T18:22:59.877Z,44.90
2023-03-28T18:25:03.022Z,48.20
2023-03-28T18:27:05.794Z,46.60
2023-03-28T18:29:10.032Z,46.50
2023-03-28T18:31:13.930Z,45.70
2023-03-28T18:33:17.231Z,48.30
2023-03-28T18:35:20.190Z,48.60
2023-03-28T18:37:22.935Z,49.90
2023-03-28T18:39:25.848Z,50.70
2023-03-28T18:41:28.616Z,48.50
2023-03-28T18:43:31.415Z,49.40
2023-03-28T18:45:36.923Z,48.70
2023-03-28T18:47:39.879Z,49.50
2023-03-28T18:49:42.705Z,46.90
2023-03-28T18:51:45.925Z,44.80
2023-03-28T18:53:48.682Z,44.50
2023-03-28T18:55:51.710Z,44.50
2023-03-28T18:57:54.453Z,45.20
2023-03-28T18:59:57.345Z,46.50
2023-03-28T19:02:01.509Z,45.80
2023-03-28T19:04:04.427Z,50.00
2023-03-28T19:06:08.369Z,49.90
2023-03-28T19:08:11.950Z,48.50
2023-03-28T19:10:14.773Z,49.80
2023-03-28T19:12:17.556Z,50.00
2023-03-28T19:14:20.330Z,50.20
2023-03-28T19:16:23.613Z,52.10
2023-03-28T19:18:27.878Z,50.70
2023-03-28T19:20:30.688Z,52.20
2023-03-28T19:22:33.445Z,51.10
2023-03-28T19:24:36.393Z,50.30
2023-03-28T19:26:39.190Z,48.20
2023-03-28T19:28:42.279Z,49.00
2023-03-28T19:30:45.258Z,52.10
2023-03-28T19:32:48.081Z,51.40
2023-03-28T19:34:53.226Z,52.30
2023-03-28T19:36:56.082Z,52.40
2023-03-28T19:38:58.872Z,51.60
2023-03-28T19:41:02.434Z,51.50
2023-03-28T19:43:05.418Z,51.20
2023-03-28T19:45:09.071Z,51.50
2023-03-28T19:47:11.866Z,52.60
2023-03-28T19:49:15.591Z,54.70
2023-03-28T19:51:19.698Z,55.40
2023-03-28T19:53:22.459Z,54.40
2023-03-28T19:55:25.243Z,54.50
2023-03-28T19:57:28.052Z,54.30
2023-03-28T19:59:30.909Z,55.20
2023-03-28T20:01:33.730Z,54.20
2023-03-28T20:03:36.502Z,56.60
2023-03-28T20:05:41.627Z,57.40
2023-03-28T20:07:45.734Z,56.70
2023-03-28T20:09:49.091Z,58.20
2023-03-28T20:11:52.840Z,60.50
2023-03-28T20:13:55.763Z,60.40
2023-03-28T20:15:58.592Z,59.70
2023-03-28T20:18:02.363Z,62.40
2023-03-28T20:20:06.136Z,62.80
2023-03-28T20:22:08.916Z,66.60
2023-03-28T20:24:13.308Z,67.90
2023-03-28T20:26:18.099Z,68.90
2023-03-28T20:28:21.405Z,70.20
2023-03-28T20:30:24.235Z,70.80
2023-03-28T20:32:27.102Z,69.90
2023-03-28T20:34:29.897Z,72.00
2023-03-28T20:36:33.029Z,73.10
2023-03-28T20:38:35.884Z,76.10
2023-03-28T20:40:41.419Z,76.70
2023-03-28T20:42:44.201Z,79.30
2023-03-28T20:44:47.720Z,78.80
2023-03-28T20:46:50.518Z,80.00
2023-03-28T20:48:56.943Z,80.50
2023-03-28T20:51:02.750Z,81.90
2023-03-28T20:53:06.367Z,82.70
2023-03-28T20:55:10.190Z,82.40
2023-03-28T20:57:14.391Z,86.50
2023-03-28T20:59:17.301Z,88.70
2023-03-28T21:01:25.151Z,87.90
2023-03-28T21:03:39.153Z,91.20
2023-03-28T21:05:42.926Z,91.20
2023-03-28T21:07:45.679Z,89.80
2023-03-28T21:09:48.400Z,91.10
2023-03-28T21:11:51.161Z,91.20
2023-03-28T21:13:55.324Z,91.10
2023-03-28T21:15:58.289Z,91.20
2023-03-28T21:18:01.156Z,91.20
2023-03-28T21:20:07.197Z,91.20
2023-03-28T21:22:09.957Z,91.20
2023-03-28T21:24:12.713Z,91.20
2023-03-28T21:26:16.439Z,91.20
2023-03-28T21:28:19.246Z,91.20
2023-03-28T21:30:23.358Z,91.10
2023-03-28T21:32:27.896Z,91.70
2023-03-28T21:34:33.870Z,92.30
2023-03-28T21:36:36.670Z,94.20
2023-03-28T21:38:39.495Z,93.70
2023-03-28T21:40:42.272Z,94.60
2023-03-28T21:42:45.073Z,95.50
2023-03-28T21:44:47.845Z,94.00
2023-03-28T21:46:52.138Z,94.50
2023-03-28T21:48:55.137Z,95.00
2023-03-28T21:50:59.810Z,92.30
2023-03-28T21:53:02.756Z,91.20
2023-03-28T21:55:06.144Z,91.20
2023-03-28T21:57:09.053Z,93.50
2023-03-28T21:59:11.853Z,93.50
2023-03-28T22:01:15.280Z,91.10
2023-03-28T22:03:19.633Z,91.10
2023-03-28T22:05:29.257Z,92.60
2023-03-28T22:07:32.832Z,95.30
2023-03-28T22:09:35.816Z,94.40
2023-03-28T22:11:39.379Z,95.20
2023-03-28T22:13:42.251Z,95.70
2023-03-28T22:15:45.084Z,96.70
2023-03-28T22:17:47.947Z,99.40
2023-03-28T22:19:53.839Z,99.90
2023-03-28T22:21:56.727Z,99.90
2023-03-28T22:24:00.008Z,99.90
2023-03-28T22:26:03.493Z,99.90
2023-03-28T22:28:07.159Z,99.90
2023-03-28T22:30:11.794Z,99.90
2023-03-28T22:32:14.721Z,99.90
2023-03-28T22:34:17.728Z,99.90
2023-03-28T22:36:22.641Z,99.90
2023-03-28T22:38:25.420Z,99.90
2023-03-28T22:40:28.397Z,99.90
2023-03-28T22:42:31.328Z,99.90
2023-03-28T22:44:34.105Z,99.90
2023-03-28T22:46:40.657Z,99.90
2023-03-28T22:48:43.569Z,99.90
2023-03-28T22:50:46.352Z,99.90
2023-03-28T22:52:52.706Z,99.90
2023-03-28T22:54:55.823Z,99.90
2023-03-28T22:56:58.765Z,99.90
2023-03-28T22:59:01.951Z,99.90
2023-03-28T23:01:04.895Z,99.90
2023-03-28T23:03:08.909Z,99.90
2023-03-28T23:05:12.663Z,99.90
2023-03-28T23:07:16.364Z,99.90
2023-03-28T23:09:20.549Z,99.90
2023-03-28T23:11:23.358Z,99.90
2023-03-28T23:13:26.130Z,99.90
2023-03-28T23:15:28.956Z,99.90
2023-03-28T23:17:32.158Z,99.90
2023-03-28T23:19:34.974Z,99.90
2023-03-28T23:21:37.813Z,99.90
2023-03-28T23:23:41.685Z,99.90
2023-03-28T23:25:47.249Z,99.90
2023-03-28T23:27:50.591Z,99.90
2023-03-28T23:29:53.366Z,99.90
2023-03-28T23:31:56.360Z,99.90
2023-03-28T23:33:59.251Z,99.90
2023-03-28T23:36:02.068Z,99.90
2023-03-28T23:38:05.130Z,99.90
2023-03-28T23:40:14.249Z,99.90
2023-03-28T23:42:19.214Z,99.90
2023-03-28T23:44:22.002Z,99.90
2023-03-28T23:46:24.987Z,99.90
2023-03-28T23:48:27.915Z,99.40
2023-03-28T23:50:31.650Z,99.50
2023-03-28T23:52:34.476Z,97.40
2023-03-28T23:54:37.470Z,98.80
2023-03-28T23:56:41.254Z,98.50
2023-03-28T23:58:45.401Z,99.90
